Time;durP1;ratioP1;P1;durP2;ratioP2;P2;SDS_P1;SDS_P2;PMS_P1;PMS_P2;Temp;Humidity;BMP_temperature;BMP_pressure;BME280_temperature;BME280_humidity;BME280_pressure;Samples;Min_cycle;Max_cycle;Signal;HPM_P1;HPM_P2
2021/11/06 00:00:58;;;;;;;8.93;6.57;;;;;;;5.52;100.00;101544.78;5015010;28;20128;-57
2021/11/06 00:03:25;;;;;;;13.55;6.88;;;;;;;5.54;100.00;101539.00;5017366;28;20600;-54
2021/11/06 00:05:51;;;;;;;8.45;5.85;;;;;;;5.45;100.00;101537.56;5014046;28;20038;-55
2021/11/06 00:08:16;;;;;;;9.82;6.47;;;;;;;5.47;100.00;101536.03;5017529;28;20056;-56
2021/11/06 00:10:42;;;;;;;11.68;6.70;;;;;;;5.44;100.00;101533.28;5014624;28;20045;-58
2021/11/06 00:13:08;;;;;;;11.73;6.97;;;;;;;5.43;100.00;101534.97;5016144;28;20075;-57
2021/11/06 00:15:34;;;;;;;12.30;6.93;;;;;;;5.53;100.00;101538.91;5014303;28;20481;-56
2021/11/06 00:17:59;;;;;;;16.13;7.47;;;;;;;5.59;100.00;101536.72;5018354;28;20103;-56
2021/11/06 00:20:25;;;;;;;15.77;7.40;;;;;;;5.49;100.00;101540.41;5017131;28;20116;-56
2021/11/06 00:22:50;;;;;;;12.90;7.18;;;;;;;5.57;100.00;101535.78;5017071;28;20048;-56
2021/11/06 00:25:16;;;;;;;12.07;7.50;;;;;;;5.42;100.00;101545.91;5013715;28;20049;-53
2021/11/06 00:27:44;;;;;;;11.68;6.95;;;;;;;5.53;100.00;101546.53;5017238;28;20037;-59
2021/11/06 00:30:11;;;;;;;11.93;7.30;;;;;;;5.61;100.00;101551.28;5014285;28;20030;-55
2021/11/06 00:32:37;;;;;;;11.73;7.45;;;;;;;5.51;100.00;101540.50;5015847;28;20088;-54
2021/11/06 00:35:05;;;;;;;12.68;7.07;;;;;;;5.48;100.00;101540.31;5015212;28;20045;-53
2021/11/06 00:37:30;;;;;;;14.27;7.78;;;;;;;5.41;100.00;101540.72;5014355;28;20098;-53
2021/11/06 00:39:56;;;;;;;15.05;8.07;;;;;;;5.44;100.00;101548.53;5016764;28;20026;-57
2021/11/06 00:42:22;;;;;;;15.82;7.60;;;;;;;5.55;100.00;101545.00;5013654;28;20038;-56
2021/11/06 00:44:47;;;;;;;17.05;7.70;;;;;;;5.56;100.00;101554.34;5016844;28;20037;-54
2021/11/06 00:47:13;;;;;;;12.20;7.97;;;;;;;5.58;100.00;101550.22;5016547;28;20037;-56
2021/11/06 00:49:39;;;;;;;12.55;8.00;;;;;;;5.60;100.00;101552.09;5013868;28;20042;-57
2021/11/06 00:52:07;;;;;;;13.07;8.35;;;;;;;5.72;100.00;101558.66;5015447;28;20041;-56
2021/11/06 00:54:32;;;;;;;13.07;8.38;;;;;;;5.82;100.00;101549.16;5015083;28;20434;-56
2021/11/06 00:56:58;;;;;;;14.52;8.05;;;;;;;5.79;100.00;101546.44;5014471;28;20030;-54
2021/11/06 00:59:24;;;;;;;11.80;7.22;;;;;;;5.72;100.00;101551.03;5016252;28;20068;-56
2021/11/06 01:01:51;;;;;;;13.35;7.82;;;;;;;5.75;100.00;101538.53;5013759;28;20034;-56
2021/11/06 01:04:18;;;;;;;10.35;6.85;;;;;;;5.79;100.00;101550.63;5013013;28;20132;-56
2021/11/06 01:06:43;;;;;;;12.57;7.55;;;;;;;5.76;100.00;101547.91;5015782;28;20041;-54
2021/11/06 01:09:09;;;;;;;17.35;8.52;;;;;;;5.81;100.00;101547.38;5013615;28;20038;-55
2021/11/06 01:11:35;;;;;;;15.32;8.20;;;;;;;5.90;100.00;101561.41;5015170;28;20037;-55
2021/11/06 01:14:01;;;;;;;12.82;7.18;;;;;;;5.85;100.00;101556.06;5014873;28;20675;-53
2021/11/06 01:16:27;;;;;;;18.52;8.02;;;;;;;5.82;100.00;101553.34;5014571;28;20044;-51
2021/11/06 01:18:53;;;;;;;10.90;7.30;;;;;;;5.92;100.00;101560.78;5015899;28;20398;-56
2021/11/06 01:21:18;;;;;;;18.10;8.68;;;;;;;5.94;100.00;101563.38;5012185;28;20413;-55
2021/11/06 01:23:44;;;;;;;12.35;6.95;;;;;;;6.00;100.00;101566.28;5020674;28;20030;-56
2021/11/06 01:26:10;;;;;;;16.10;7.18;;;;;;;6.01;100.00;101565.47;5016391;28;20034;-54
2021/11/06 01:28:35;;;;;;;19.30;8.05;;;;;;;6.08;100.00;101562.53;5016506;28;20041;-53
2021/11/06 01:31:01;;;;;;;16.75;7.95;;;;;;;6.11;100.00;101562.72;5014661;28;20111;-56
2021/11/06 01:33:27;;;;;;;13.27;7.45;;;;;;;6.13;100.00;101572.16;5014795;28;20478;-55
2021/11/06 01:35:52;;;;;;;15.32;7.72;;;;;;;6.28;100.00;101567.06;5014602;28;20061;-54
2021/11/06 01:38:18;;;;;;;11.77;8.02;;;;;;;6.25;100.00;101574.53;5014192;28;20038;-55
2021/11/06 01:40:46;;;;;;;11.10;7.30;;;;;;;6.33;100.00;101567.34;5015689;28;20044;-54
2021/11/06 01:43:19;;;;;;;15.32;7.47;;;;;;;6.33;100.00;101567.34;5012679;28;20034;-55
2021/11/06 01:45:45;;;;;;;14.68;7.43;;;;;;;6.21;100.00;101567.53;5016607;28;20533;-55
2021/11/06 01:48:10;;;;;;;15.98;8.23;;;;;;;6.27;100.00;101559.38;5016798;28;20069;-58
2021/11/06 01:50:36;;;;;;;18.15;8.75;;;;;;;6.11;100.00;101571.22;5014409;28;20371;-57
2021/11/06 01:53:02;;;;;;;15.25;8.15;;;;;;;6.25;100.00;101571.13;5015654;28;20025;-57
2021/11/06 01:55:28;;;;;;;14.38;6.90;;;;;;;6.22;100.00;101569.28;5013878;28;20032;-58
2021/11/06 01:57:54;;;;;;;14.65;7.90;;;;;;;6.28;100.00;101561.09;5016632;28;20084;-58
2021/11/06 02:00:24;;;;;;;14.95;8.43;;;;;;;6.17;100.00;101557.97;5017138;28;20053;-57
2021/11/06 02:02:51;;;;;;;17.02;8.98;;;;;;;6.03;100.00;101556.28;5015572;28;20060;-58
2021/11/06 02:05:17;;;;;;;16.67;7.80;;;;;;;6.17;100.00;101560.50;5014778;28;20402;-59
2021/11/06 02:07:44;;;;;;;16.98;8.18;;;;;;;6.06;100.00;101564.13;5014380;28;20041;-58
2021/11/06 02:10:11;;;;;;;19.42;8.85;;;;;;;6.07;100.00;101561.66;5015660;28;20060;-59
2021/11/06 02:12:38;;;;;;;15.23;7.38;;;;;;;6.12;100.00;101554.28;5016308;28;20034;-58
2021/11/06 02:15:06;;;;;;;17.25;8.02;;;;;;;6.19;100.00;101561.47;5016236;28;20598;-56
2021/11/06 02:17:32;;;;;;;17.65;8.20;;;;;;;6.06;100.00;101553.94;5013764;28;20030;-58
2021/11/06 02:19:58;;;;;;;19.55;8.65;;;;;;;6.01;100.00;101562.94;5017706;28;20026;-57
2021/11/06 02:22:24;;;;;;;19.55;8.30;;;;;;;6.13;100.00;101559.44;5018680;28;20486;-54
2021/11/06 02:24:53;;;;;;;20.33;8.48;;;;;;;6.17;100.00;101557.09;5016350;28;20053;-57
2021/11/06 02:27:21;;;;;;;16.17;8.98;;;;;;;6.05;100.00;101559.78;5016333;28;20061;-59
2021/11/06 02:29:47;;;;;;;17.52;8.18;;;;;;;6.02;100.00;101565.59;5016207;28;20041;-58
2021/11/06 02:32:12;;;;;;;15.50;8.02;;;;;;;6.12;100.00;101572.09;5018867;28;20029;-59
2021/11/06 02:34:38;;;;;;;14.73;7.97;;;;;;;6.22;100.00;101570.94;5016798;28;20121;-58
2021/11/06 02:37:04;;;;;;;17.15;8.25;;;;;;;6.19;100.00;101570.75;5018169;28;20032;-56
2021/11/06 02:39:30;;;;;;;14.70;7.90;;;;;;;6.30;100.00;101569.72;5017895;28;20037;-56
2021/11/06 02:42:06;;;;;;;15.88;8.35;;;;;;;6.22;100.00;101574.34;5016376;28;20040;-56
2021/11/06 02:44:32;;;;;;;17.88;7.88;;;;;;;6.22;100.00;101571.81;5019184;28;20045;-56
2021/11/06 02:46:58;;;;;;;17.58;8.95;;;;;;;6.23;100.00;101575.22;5016987;28;20406;-57
2021/11/06 02:49:24;;;;;;;14.50;7.82;;;;;;;6.26;100.00;101570.34;5017902;28;20036;-58
2021/11/06 02:51:50;;;;;;;20.00;9.00;;;;;;;6.27;100.00;101567.88;5017581;28;20037;-58
2021/11/06 02:54:16;;;;;;;15.70;8.30;;;;;;;6.26;100.00;101572.88;5015973;28;20037;-59
2021/11/06 02:56:42;;;;;;;15.18;7.60;;;;;;;6.40;100.00;101566.03;5015287;28;20081;-59
2021/11/06 02:59:07;;;;;;;18.52;8.13;;;;;;;6.38;100.00;101568.50;5018604;28;20120;-58
2021/11/06 03:01:33;;;;;;;15.70;8.18;;;;;;;6.32;100.00;101561.38;4993389;28;20205;-60
2021/11/06 03:03:59;;;;;;;17.08;8.25;;;;;;;6.52;100.00;101566.72;5008063;28;20050;-59
2021/11/06 03:06:25;;;;;;;16.52;7.97;;;;;;;6.56;100.00;101568.63;5016216;28;20564;-57
2021/11/06 03:08:50;;;;;;;17.52;8.57;;;;;;;6.52;100.00;101562.50;5017967;28;20045;-57
2021/11/06 03:11:16;;;;;;;16.95;8.50;;;;;;;6.57;100.00;101560.22;5016998;28;20033;-59
2021/11/06 03:13:44;;;;;;;18.70;8.98;;;;;;;6.66;100.00;101568.38;5015522;28;20386;-59
2021/11/06 03:16:13;;;;;;;19.77;8.18;;;;;;;6.55;100.00;101569.44;5014803;28;20486;-59
2021/11/06 03:18:38;;;;;;;16.75;8.13;;;;;;;6.71;100.00;101568.63;5018973;28;20443;-56
2021/11/06 03:21:04;;;;;;;12.82;7.75;;;;;;;6.73;100.00;101565.34;5015273;28;20113;-59
2021/11/06 03:23:30;;;;;;;18.70;8.35;;;;;;;6.77;100.00;101576.59;5017869;28;20040;-60
2021/11/06 03:25:56;;;;;;;17.42;7.40;;;;;;;6.71;100.00;101572.03;5015930;28;20050;-57
2021/11/06 03:28:22;;;;;;;15.88;7.28;;;;;;;6.68;100.00;101576.97;5017004;28;20069;-55
2021/11/06 03:30:48;;;;;;;14.18;7.93;;;;;;;6.91;100.00;101577.34;5014276;28;20065;-55
2021/11/06 03:33:14;;;;;;;15.80;7.13;;;;;;;6.78;100.00;101579.22;5017415;28;20034;-59
2021/11/06 03:35:40;;;;;;;12.50;6.88;;;;;;;6.95;100.00;101585.25;5015637;28;20040;-59
2021/11/06 03:38:05;;;;;;;12.98;7.20;;;;;;;6.83;100.00;101587.97;5018749;28;20723;-55
2021/11/06 03:40:31;;;;;;;14.00;6.53;;;;;;;6.81;100.00;101584.47;5015354;28;20033;-60
2021/11/06 03:42:57;;;;;;;12.35;6.75;;;;;;;6.68;100.00;101591.34;5015701;28;20049;-57
2021/11/06 03:45:23;;;;;;;15.40;7.88;;;;;;;7.03;100.00;101591.63;5019083;28;20439;-60
2021/11/06 03:47:49;;;;;;;12.32;6.13;;;;;;;7.10;100.00;101593.69;5017367;28;20042;-56
2021/11/06 03:50:15;;;;;;;13.57;6.82;;;;;;;7.03;100.00;101589.09;5016919;28;20040;-59
2021/11/06 03:52:41;;;;;;;13.63;6.85;;;;;;;6.97;100.00;101591.28;5017675;28;20048;-59
2021/11/06 03:55:09;;;;;;;12.73;6.30;;;;;;;7.06;100.00;101598.53;5016292;28;20507;-56
2021/11/06 03:57:35;;;;;;;13.30;6.78;;;;;;;7.00;100.00;101593.13;5018801;28;20026;-59
2021/11/06 04:00:03;;;;;;;10.93;6.07;;;;;;;7.05;100.00;101601.88;5015507;28;20040;-58
2021/11/06 04:02:29;;;;;;;13.35;6.15;;;;;;;7.15;100.00;101591.41;5017713;28;20036;-57
2021/11/06 04:04:55;;;;;;;13.32;5.82;;;;;;;7.09;100.00;101598.72;5016912;28;20033;-58
2021/11/06 04:07:20;;;;;;;13.35;6.03;;;;;;;7.12;100.00;101604.00;5017208;28;20029;-58
2021/11/06 04:09:46;;;;;;;13.52;5.38;;;;;;;7.16;100.00;101605.88;5017754;28;20034;-59
2021/11/06 04:12:12;;;;;;;13.45;5.28;;;;;;;7.21;100.00;101606.13;5016463;28;20525;-59
2021/11/06 04:14:37;;;;;;;12.90;5.68;;;;;;;7.10;100.00;101606.44;5017858;28;20033;-58
2021/11/06 04:17:03;;;;;;;12.70;5.25;;;;;;;7.21;100.00;101606.13;5014062;28;20034;-56
2021/11/06 04:19:29;;;;;;;10.23;5.43;;;;;;;7.24;100.00;101607.19;5017659;28;20387;-56
2021/11/06 04:21:55;;;;;;;13.35;5.40;;;;;;;7.30;100.00;101611.72;5014843;28;20395;-56
2021/11/06 04:24:21;;;;;;;11.80;5.70;;;;;;;7.28;100.00;101610.78;5016422;28;20034;-59
2021/11/06 04:26:46;;;;;;;13.63;5.90;;;;;;;7.19;100.00;101616.25;5013468;28;20563;-58
2021/11/06 04:29:12;;;;;;;13.45;4.95;;;;;;;7.26;100.00;101615.81;5015487;28;20061;-58
2021/11/06 04:31:37;;;;;;;14.70;5.68;;;;;;;7.35;100.00;101620.53;5014843;28;20034;-58
2021/11/06 04:34:03;;;;;;;14.02;5.57;;;;;;;7.02;100.00;101622.09;5016289;28;20124;-57
2021/11/06 04:36:28;;;;;;;14.38;5.80;;;;;;;6.99;100.00;101615.19;5014045;28;20029;-54
2021/11/06 04:38:54;;;;;;;11.35;5.15;;;;;;;7.17;100.00;101612.75;5017422;28;20048;-57
2021/11/06 04:41:20;;;;;;;13.48;6.20;;;;;;;7.08;100.00;101612.25;5013632;28;20433;-57
2021/11/06 04:43:46;;;;;;;9.40;5.30;;;;;;;7.04;100.00;101608.66;5016216;28;21176;-56
2021/11/06 04:46:11;;;;;;;8.38;4.78;;;;;;;7.03;100.00;101613.69;5014125;28;20030;-55
2021/11/06 04:48:37;;;;;;;11.82;5.45;;;;;;;7.21;100.00;101619.78;5015259;28;20494;-55
2021/11/06 04:51:03;;;;;;;14.93;5.30;;;;;;;7.01;100.00;101618.66;5013734;28;20049;-55
2021/11/06 04:53:29;;;;;;;9.80;5.05;;;;;;;7.11;100.00;101623.47;5014170;28;20320;-58
2021/11/06 04:55:54;;;;;;;8.30;4.80;;;;;;;6.94;100.00;101619.13;5016426;28;20032;-57
2021/11/06 04:58:20;;;;;;;11.30;5.45;;;;;;;6.91;100.00;101611.31;5013534;28;20522;-56
2021/11/06 05:00:46;;;;;;;10.63;5.20;;;;;;;6.91;100.00;101611.31;5016794;28;20044;-57
2021/11/06 05:03:14;;;;;;;12.57;4.93;;;;;;;7.00;100.00;101606.72;5013237;28;20041;-52
2021/11/06 05:05:40;;;;;;;10.93;5.25;;;;;;;6.99;100.00;101610.09;5013029;28;20117;-56
2021/11/06 05:08:05;;;;;;;11.68;5.32;;;;;;;6.88;100.00;101611.16;5030056;28;20702;-55
2021/11/06 05:10:32;;;;;;;12.20;5.07;;;;;;;7.00;100.00;101610.94;5015074;28;20113;-56
2021/11/06 05:12:57;;;;;;;11.98;5.22;;;;;;;6.93;100.00;101608.84;5014249;28;20502;-55
2021/11/06 05:15:23;;;;;;;11.70;5.25;;;;;;;6.95;100.00;101607.28;5016127;28;20123;-54
2021/11/06 05:17:49;;;;;;;11.85;4.80;;;;;;;6.95;100.00;101607.28;5017049;28;20034;-54
2021/11/06 05:20:14;;;;;;;8.52;5.00;;;;;;;7.05;100.00;101601.88;5013093;28;20104;-55
2021/11/06 05:22:40;;;;;;;8.35;5.22;;;;;;;6.89;100.00;101603.59;5016333;28;20133;-52
2021/11/06 05:25:08;;;;;;;10.57;4.93;;;;;;;6.93;100.00;101598.66;5011832;28;20038;-58
2021/11/06 05:27:34;;;;;;;13.88;5.65;;;;;;;7.04;100.00;101595.06;5015030;28;20038;-55
2021/11/06 05:30:03;;;;;;;14.35;5.72;;;;;;;6.96;100.00;101596.28;5019633;28;20126;-59
2021/11/06 05:32:28;;;;;;;11.25;5.57;;;;;;;6.92;100.00;101594.38;5016239;28;20033;-59
2021/11/06 05:34:54;;;;;;;10.73;5.95;;;;;;;6.91;100.00;101597.72;5018295;28;20440;-58
2021/11/06 05:37:19;;;;;;;13.15;6.22;;;;;;;7.17;100.00;101600.03;5013620;28;20494;-53
2021/11/06 05:39:45;;;;;;;9.73;4.60;;;;;;;7.04;100.00;101603.56;5031419;28;20041;-54
2021/11/06 05:42:10;;;;;;;13.38;6.10;;;;;;;7.02;100.00;101610.22;5016376;28;20448;-54
2021/11/06 05:44:36;;;;;;;10.43;5.95;;;;;;;7.06;100.00;101608.72;5013553;28;20038;-57
2021/11/06 05:47:02;;;;;;;10.52;5.65;;;;;;;7.19;100.00;101613.69;5014567;28;20524;-54
2021/11/06 05:49:28;;;;;;;14.93;6.00;;;;;;;7.12;100.00;101609.97;5014417;28;20292;-54
2021/11/06 05:51:53;;;;;;;11.02;5.50;;;;;;;7.30;100.00;101611.72;5013105;28;20095;-53
2021/11/06 05:54:19;;;;;;;10.65;5.68;;;;;;;7.27;100.00;101614.13;5014714;28;20049;-59
2021/11/06 05:56:45;;;;;;;13.52;7.40;;;;;;;7.26;100.00;101622.56;5019798;28;20073;-53
2021/11/06 05:59:10;;;;;;;11.57;6.07;;;;;;;7.23;100.00;101630.03;5016403;28;20038;-59
2021/11/06 06:01:36;;;;;;;13.00;6.95;;;;;;;7.28;100.00;101626.94;5019766;28;20195;-55
2021/11/06 06:04:02;;;;;;;15.32;5.75;;;;;;;7.32;100.00;101617.78;5019958;28;20972;-55
2021/11/06 06:06:28;;;;;;;10.85;7.20;;;;;;;7.46;100.00;101624.50;5017777;28;20038;-55
2021/11/06 06:08:53;;;;;;;15.18;8.85;;;;;;;7.28;100.00;101621.84;5018479;28;20043;-55
2021/11/06 06:11:19;;;;;;;13.43;6.22;;;;;;;7.31;100.00;101624.56;5018212;28;20033;-57
2021/11/06 06:13:45;;;;;;;15.98;6.70;;;;;;;7.15;100.00;101629.59;5016713;28;20026;-58
2021/11/06 06:16:10;;;;;;;15.70;7.25;;;;;;;7.14;100.00;101625.31;5018884;28;20029;-50
2021/11/06 06:18:36;;;;;;;11.85;7.07;;;;;;;7.48;100.00;101634.75;5016484;28;20694;-56
2021/11/06 06:21:02;;;;;;;10.68;6.68;;;;;;;7.46;100.00;101628.72;5019514;28;20034;-53
2021/11/06 06:23:27;;;;;;;13.13;6.57;;;;;;;7.49;100.00;101628.88;5015543;28;20067;-60
2021/11/06 06:25:53;;;;;;;13.45;6.85;;;;;;;7.59;100.00;101631.13;5017017;28;20141;-55
2021/11/06 06:28:19;;;;;;;13.27;6.47;;;;;;;7.63;100.00;101645.78;5017723;28;20154;-56
2021/11/06 06:30:45;;;;;;;13.10;6.90;;;;;;;7.54;100.00;101640.22;5017529;28;20490;-54
2021/11/06 06:33:11;;;;;;;14.57;6.35;;;;;;;7.49;100.00;101642.50;5016948;28;20033;-58
2021/11/06 06:35:37;;;;;;;11.32;6.40;;;;;;;7.59;100.00;101638.78;5018092;28;20075;-55
2021/11/06 06:38:03;;;;;;;10.65;6.13;;;;;;;7.46;100.00;101644.00;5016069;28;20041;-58
2021/11/06 06:40:29;;;;;;;11.60;6.43;;;;;;;7.53;100.00;101652.06;5019033;28;20494;-59
2021/11/06 06:42:55;;;;;;;15.85;7.38;;;;;;;7.53;100.00;101643.53;5015871;28;20059;-58
2021/11/06 06:45:22;;;;;;;13.18;6.60;;;;;;;7.55;100.00;101649.59;5017930;28;20129;-54
2021/11/06 06:47:48;;;;;;;11.88;6.47;;;;;;;7.57;100.00;101653.09;5016470;28;20044;-59
2021/11/06 06:50:14;;;;;;;12.23;6.57;;;;;;;7.56;100.00;101652.22;5017162;28;20605;-59
2021/11/06 06:52:40;;;;;;;13.95;6.85;;;;;;;7.68;100.00;101654.56;5017984;28;20037;-57
2021/11/06 06:55:07;;;;;;;12.80;6.45;;;;;;;7.61;100.00;101655.00;5015958;28;20040;-55
2021/11/06 06:57:33;;;;;;;12.68;7.18;;;;;;;7.80;100.00;101667.06;5020466;28;20421;-58
2021/11/06 06:59:58;;;;;;;12.88;7.10;;;;;;;7.72;100.00;101670.88;5017462;28;20036;-57
2021/11/06 07:02:24;;;;;;;14.60;7.80;;;;;;;7.93;100.00;101666.03;5014735;28;20045;-57
2021/11/06 07:04:50;;;;;;;10.25;6.38;;;;;;;7.97;100.00;101673.06;5016060;28;20029;-56
2021/11/06 07:07:15;;;;;;;13.63;6.53;;;;;;;7.94;100.00;101673.75;5014841;28;20140;-58
2021/11/06 07:09:42;;;;;;;11.55;7.00;;;;;;;8.04;100.00;101678.56;5016855;28;20037;-58
2021/11/06 07:12:08;;;;;;;12.38;7.18;;;;;;;8.00;100.00;101673.22;5016998;28;20034;-54
2021/11/06 07:14:35;;;;;;;10.52;6.55;;;;;;;8.01;100.00;101675.84;5015560;28;20030;-57
2021/11/06 07:17:00;;;;;;;13.48;6.15;;;;;;;8.01;100.00;101680.06;5018354;28;20482;-53
2021/11/06 07:19:26;;;;;;;12.35;6.82;;;;;;;8.13;100.00;101680.69;5015474;28;20057;-56
2021/11/06 07:21:51;;;;;;;12.27;6.38;;;;;;;8.28;100.00;101688.28;5017944;28;20397;-56
2021/11/06 07:24:17;;;;;;;13.50;6.57;;;;;;;8.23;100.00;101682.03;5015387;28;20045;-55
2021/11/06 07:26:43;;;;;;;12.65;6.13;;;;;;;8.22;100.00;101688.81;5016737;28;20043;-59
2021/11/06 07:29:14;;;;;;;14.55;6.65;;;;;;;8.41;100.00;101678.78;5016072;28;20053;-55
2021/11/06 07:31:39;;;;;;;12.93;6.53;;;;;;;8.39;100.00;101687.16;5015224;28;20030;-59
2021/11/06 07:34:05;;;;;;;9.77;5.93;;;;;;;8.70;100.00;101683.59;5017664;28;20509;-56
2021/11/06 07:36:31;;;;;;;9.30;5.97;;;;;;;8.55;100.00;101689.69;5014451;28;20034;-58
2021/11/06 07:38:57;;;;;;;10.02;6.95;;;;;;;8.65;100.00;101685.91;5018407;28;20030;-55
2021/11/06 07:41:23;;;;;;;11.23;6.20;;;;;;;8.89;100.00;101689.66;5015991;28;20033;-61
2021/11/06 07:43:49;;;;;;;6.90;4.90;;;;;;;8.62;100.00;101689.19;5017297;28;20059;-57
2021/11/06 07:46:15;;;;;;;13.75;5.50;;;;;;;8.74;100.00;101686.38;5016051;28;20067;-57
2021/11/06 07:48:41;;;;;;;12.13;6.72;;;;;;;9.00;100.00;101697.81;5015924;28;20062;-58
2021/11/06 07:51:07;;;;;;;10.15;6.00;;;;;;;8.88;100.00;101700.69;5017177;28;20041;-56
2021/11/06 07:53:32;;;;;;;12.40;6.22;;;;;;;8.83;100.00;101698.72;5014417;28;20700;-60
2021/11/06 07:55:59;;;;;;;10.07;6.00;;;;;;;8.79;100.00;101700.22;5017335;28;20061;-52
2021/11/06 07:58:24;;;;;;;8.18;5.82;;;;;;;8.78;100.00;101693.38;5018004;28;20112;-55
2021/11/06 08:00:57;;;;;;;10.45;5.68;;;;;;;8.87;100.00;101705.69;5014701;28;20113;-53
2021/11/06 08:03:23;;;;;;;9.40;5.97;;;;;;;9.05;100.00;101705.72;5015734;28;20109;-55
2021/11/06 08:05:48;;;;;;;10.75;6.30;;;;;;;9.08;100.00;101699.09;5019924;28;20045;-55
2021/11/06 08:08:14;;;;;;;9.80;6.47;;;;;;;9.23;100.00;101708.28;5029309;28;20061;-53
2021/11/06 08:10:39;;;;;;;10.70;6.57;;;;;;;8.93;100.00;101700.91;5017406;28;20038;-56
2021/11/06 08:13:07;;;;;;;13.20;6.15;;;;;;;9.08;100.00;101710.97;5019130;28;20041;-59
2021/11/06 08:15:32;;;;;;;11.93;6.22;;;;;;;9.01;100.00;101707.22;5019851;28;20561;-57
2021/11/06 08:17:58;;;;;;;11.07;5.40;;;;;;;9.01;100.00;101707.22;5016932;28;20116;-53
2021/11/06 08:20:24;;;;;;;12.93;6.20;;;;;;;8.99;100.00;101713.09;5021446;28;20041;-61
2021/11/06 08:22:51;;;;;;;8.48;6.07;;;;;;;9.04;100.00;101716.75;5018659;28;20061;-61
2021/11/06 08:25:22;;;;;;;8.80;5.68;;;;;;;9.12;100.00;101718.88;5016376;28;20581;-59
2021/11/06 08:27:50;;;;;;;9.68;6.00;;;;;;;9.16;100.00;101712.22;5016894;28;20171;-61
2021/11/06 08:30:18;;;;;;;10.35;6.05;;;;;;;9.22;100.00;101715.06;5016315;28;20041;-59
2021/11/06 08:32:46;;;;;;;8.85;5.32;;;;;;;9.19;100.00;101720.91;5015364;28;20460;-59
2021/11/06 08:35:12;;;;;;;9.25;6.25;;;;;;;9.19;100.00;101720.91;5020252;28;20037;-60
2021/11/06 08:37:39;;;;;;;8.95;5.43;;;;;;;9.30;100.00;101723.13;5016409;28;20038;-60
2021/11/06 08:40:05;;;;;;;11.35;6.18;;;;;;;9.26;100.00;101713.53;5020573;28;20048;-59
2021/11/06 08:42:32;;;;;;;7.82;6.07;;;;;;;9.38;100.00;101714.09;5020536;28;20524;-59
2021/11/06 08:44:58;;;;;;;10.15;6.40;;;;;;;9.42;100.00;101718.56;5016771;28;20037;-60
2021/11/06 08:47:24;;;;;;;9.15;6.18;;;;;;;9.64;100.00;101721.31;5013962;28;20041;-61
2021/11/06 08:49:50;;;;;;;12.27;6.78;;;;;;;9.66;100.00;101726.50;5015731;28;20132;-60
2021/11/06 08:52:20;;;;;;;8.68;5.90;;;;;;;9.89;100.00;101723.31;5014515;28;20483;-60
2021/11/06 08:54:49;;;;;;;9.55;6.35;;;;;;;9.71;100.00;101722.47;5016952;28;20041;-60
2021/11/06 08:57:19;;;;;;;10.15;5.22;;;;;;;9.91;100.00;101729.38;5024180;28;20056;-60
2021/11/06 08:59:48;;;;;;;7.20;5.60;;;;;;;10.07;100.00;101727.47;5024098;28;20061;-59
2021/11/06 09:02:14;;;;;;;9.02;5.30;;;;;;;10.12;100.00;101714.09;5023309;28;20025;-60
2021/11/06 09:04:40;;;;;;;8.55;5.28;;;;;;;10.12;100.00;101714.09;5023495;28;20059;-60
2021/11/06 09:07:05;;;;;;;10.57;6.10;;;;;;;10.12;100.00;101721.78;5023006;28;20037;-61
2021/11/06 09:09:31;;;;;;;10.52;4.80;;;;;;;10.08;100.00;101717.34;5023793;28;20052;-61
2021/11/06 09:11:57;;;;;;;9.18;5.38;;;;;;;9.87;100.00;101712.13;5021232;28;20113;-58
2021/11/06 09:14:22;;;;;;;8.57;5.32;;;;;;;10.01;100.00;101706.75;5023123;28;20044;-60
2021/11/06 09:16:48;;;;;;;5.93;4.63;;;;;;;10.31;100.00;101714.94;5015582;28;20116;-60
2021/11/06 09:19:14;;;;;;;7.63;4.68;;;;;;;10.38;100.00;101715.25;5023177;28;20037;-61
2021/11/06 09:21:41;;;;;;;6.35;4.68;;;;;;;10.40;100.00;101721.31;5022642;28;20033;-59
2021/11/06 09:24:07;;;;;;;8.88;5.15;;;;;;;10.33;100.00;101714.19;5019605;28;20033;-60
2021/11/06 09:26:36;;;;;;;8.90;4.78;;;;;;;11.02;99.41;101709.34;5023744;28;20391;-60
2021/11/06 09:29:04;;;;;;;6.88;4.00;;;;;;;10.85;99.27;101713.78;5024934;28;20767;-58
2021/11/06 09:31:29;;;;;;;8.00;4.70;;;;;;;10.82;100.00;101707.69;5023321;28;20041;-55
2021/11/06 09:33:56;;;;;;;6.60;5.35;;;;;;;10.99;99.54;101708.34;5020824;28;20040;-56
2021/11/06 09:36:22;;;;;;;7.50;4.80;;;;;;;11.09;100.00;101710.47;5023982;28;20136;-59
2021/11/06 09:38:48;;;;;;;6.43;5.07;;;;;;;10.96;100.00;101714.25;5026745;28;20037;-60
2021/11/06 09:41:16;;;;;;;10.73;5.43;;;;;;;11.06;100.00;101718.94;5019592;28;20037;-58
2021/11/06 09:43:42;;;;;;;7.40;4.72;;;;;;;11.46;98.81;101721.38;5027098;28;20107;-59
2021/11/06 09:46:09;;;;;;;10.68;5.18;;;;;;;11.70;96.98;101726.56;5026644;28;20040;-59
2021/11/06 09:48:36;;;;;;;9.02;5.32;;;;;;;11.62;94.59;101730.53;5027619;28;20172;-59
2021/11/06 09:51:02;;;;;;;20.35;5.60;;;;;;;11.27;95.90;101723.16;5027895;28;20037;-61
2021/11/06 09:53:31;;;;;;;7.30;4.70;;;;;;;11.39;96.88;101728.75;5027496;28;20034;-63
2021/11/06 09:55:58;;;;;;;7.20;4.13;;;;;;;11.64;96.47;101723.75;5019995;28;20033;-61
2021/11/06 09:58:24;;;;;;;7.55;5.00;;;;;;;11.86;94.08;101722.91;5025956;28;20041;-61
2021/11/06 10:00:51;;;;;;;8.40;4.90;;;;;;;11.43;95.91;101723.81;5023199;28;20068;-57
2021/11/06 10:03:17;;;;;;;8.82;4.18;;;;;;;11.22;95.87;101735.78;5015804;28;20038;-59
2021/11/06 10:05:51;;;;;;;8.23;4.18;;;;;;;11.04;95.23;101723.09;5022252;28;20037;-61
2021/11/06 10:08:37;;;;;;;4.90;3.72;;;;;;;11.33;93.62;101738.78;5017925;28;20033;-61
2021/11/06 10:11:11;;;;;;;4.07;3.42;;;;;;;11.01;93.73;101734.94;5017394;28;20033;-61
2021/11/06 10:14:04;;;;;;;5.68;3.70;;;;;;;11.39;93.10;101728.75;5023889;28;20095;-60
2021/11/06 10:16:34;;;;;;;5.43;3.20;;;;;;;11.40;93.22;101736.50;5018092;28;20628;-60
2021/11/06 10:19:14;;;;;;;5.07;3.50;;;;;;;11.48;94.26;101724.00;5026381;28;20040;-60
2021/11/06 10:21:46;;;;;;;4.28;3.28;;;;;;;11.39;94.29;101718.50;5025714;28;20039;-58
2021/11/06 10:24:14;;;;;;;7.90;3.47;;;;;;;11.47;93.34;101728.25;5020341;28;20506;-59
2021/11/06 10:26:42;;;;;;;6.90;3.08;;;;;;;11.54;91.64;101718.22;5027172;28;20083;-61
2021/11/06 10:29:13;;;;;;;4.88;3.45;;;;;;;11.58;91.93;101714.94;5026562;28;20037;-61
2021/11/06 10:31:54;;;;;;;7.13;3.53;;;;;;;11.63;93.86;101705.72;5018150;28;20100;-61
2021/11/06 10:34:24;;;;;;;5.18;3.30;;;;;;;11.92;90.87;101700.03;5017056;28;20533;-61
2021/11/06 10:37:01;;;;;;;4.15;3.05;;;;;;;11.64;91.06;101699.78;5016694;28;20119;-61
2021/11/06 10:39:27;;;;;;;5.80;3.03;;;;;;;11.85;89.22;101703.19;5019147;28;20041;-61
2021/11/06 10:42:09;;;;;;;5.30;2.55;;;;;;;11.75;91.02;101703.63;5016662;28;20038;-61
2021/11/06 10:44:35;;;;;;;5.53;3.30;;;;;;;11.66;91.15;101699.03;5015261;28;20065;-61
2021/11/06 10:47:00;;;;;;;4.80;3.10;;;;;;;11.82;89.30;101697.03;5018887;28;20751;-61
2021/11/06 10:49:41;;;;;;;2.92;2.60;;;;;;;11.75;91.08;101701.06;5016643;28;20044;-61
2021/11/06 10:52:08;;;;;;;5.18;2.60;;;;;;;12.01;91.97;101708.88;5015795;28;20057;-61
2021/11/06 10:54:59;;;;;;;2.80;2.50;;;;;;;12.62;88.29;101706.75;5018563;28;20034;-60
2021/11/06 10:57:26;;;;;;;5.80;2.60;;;;;;;12.52;86.64;101714.09;5019239;28;20044;-61
2021/11/06 11:00:13;;;;;;;5.90;2.95;;;;;;;12.73;87.28;101710.56;5018650;28;20092;-60
2021/11/06 11:02:40;;;;;;;5.78;2.72;;;;;;;12.73;84.47;101707.09;5018666;28;20409;-60
2021/11/06 11:05:33;;;;;;;4.82;2.80;;;;;;;12.54;86.07;101708.19;5015258;28;20204;-62
2021/11/06 11:08:02;;;;;;;3.25;2.50;;;;;;;13.04;88.20;101705.56;5019239;28;20418;-60
2021/11/06 11:10:28;;;;;;;4.90;2.58;;;;;;;12.72;86.19;101703.66;5020515;28;20124;-61
2021/11/06 11:13:16;;;;;;;4.32;2.83;;;;;;;12.45;85.18;101693.34;5024815;28;20446;-61
2021/11/06 11:15:46;;;;;;;4.00;2.50;;;;;;;12.41;88.59;101694.06;5023450;28;20095;-60
2021/11/06 11:18:31;;;;;;;4.65;2.78;;;;;;;12.86;86.35;101698.13;5022028;28;20565;-61